sensor_id;sensor_type;location;lat;lon;timestamp;pressure;altitude;pressure_sealevel;temperature;humidity
60611;BME280;46439;51.164;13.572;2023-04-25T00:01:48;99061.27;;;11.30;100.00
60611;BME280;46439;51.164;13.572;2023-04-25T00:04:17;99057.54;;;11.35;100.00
60611;BME280;46439;51.164;13.572;2023-04-25T00:06:45;99055.79;;;11.38;100.00
60611;BME280;46439;51.164;13.572;2023-04-25T00:09:14;99057.02;;;11.42;100.00
60611;BME280;46439;51.164;13.572;2023-04-25T00:11:43;99056.30;;;11.47;100.00
60611;BME280;46439;51.164;13.572;2023-04-25T00:14:12;99052.77;;;11.53;100.00
60611;BME280;46439;51.164;13.572;2023-04-25T00:16:41;99054.11;;;11.55;100.00
60611;BME280;46439;51.164;13.572;2023-04-25T00:19:12;99049.09;;;11.55;100.00
60611;BME280;46439;51.164;13.572;2023-04-25T00:21:41;99050.36;;;11.59;100.00
60611;BME280;46439;51.164;13.572;2023-04-25T00:24:10;99051.49;;;11.64;100.00
60611;BME280;46439;51.164;13.572;2023-04-25T00:26:38;99051.45;;;11.69;100.00
60611;BME280;46439;51.164;13.572;2023-04-25T00:29:07;99049.54;;;11.72;100.00
60611;BME280;46439;51.164;13.572;2023-04-25T00:31:35;99050.40;;;11.73;100.00
60611;BME280;46439;51.164;13.572;2023-04-25T00:34:05;99048.48;;;11.74;100.00
60611;BME280;46439;51.164;13.572;2023-04-25T00:36:33;99047.33;;;11.74;100.00
60611;BME280;46439;51.164;13.572;2023-04-25T00:39:02;99044.98;;;11.76;100.00
60611;BME280;46439;51.164;13.572;2023-04-25T00:41:35;99046.99;;;11.77;100.00
60611;BME280;46439;51.164;13.572;2023-04-25T00:44:05;99039.96;;;11.77;100.00
60611;BME280;46439;51.164;13.572;2023-04-25T00:46:35;99037.77;;;11.74;100.00
60611;BME280;46439;51.164;13.572;2023-04-25T00:49:04;99040.58;;;11.73;100.00
60611;BME280;46439;51.164;13.572;2023-04-25T00:51:34;99039.30;;;11.71;100.00
60611;BME280;46439;51.164;13.572;2023-04-25T00:54:03;99036.77;;;11.67;100.00
60611;BME280;46439;51.164;13.572;2023-04-25T00:56:32;99035.23;;;11.64;100.00
60611;BME280;46439;51.164;13.572;2023-04-25T00:59:00;99037.61;;;11.61;100.00
60611;BME280;46439;51.164;13.572;2023-04-25T01:01:29;99039.09;;;11.55;100.00
60611;BME280;46439;51.164;13.572;2023-04-25T01:03:59;99041.80;;;11.47;100.00
60611;BME280;46439;51.164;13.572;2023-04-25T01:06:29;99041.83;;;11.39;100.00
60611;BME280;46439;51.164;13.572;2023-04-25T01:08:59;99041.91;;;11.32;100.00
60611;BME280;46439;51.164;13.572;2023-04-25T01:11:27;99040.73;;;11.27;100.00
60611;BME280;46439;51.164;13.572;2023-04-25T01:13:56;99041.02;;;11.25;100.00
60611;BME280;46439;51.164;13.572;2023-04-25T01:16:24;99039.36;;;11.23;100.00
60611;BME280;46439;51.164;13.572;2023-04-25T01:18:53;99039.52;;;11.22;100.00
60611;BME280;46439;51.164;13.572;2023-04-25T01:21:22;99034.95;;;11.19;100.00
60611;BME280;46439;51.164;13.572;2023-04-25T01:23:51;99038.17;;;11.15;100.00
60611;BME280;46439;51.164;13.572;2023-04-25T01:26:20;99038.39;;;11.14;100.00
60611;BME280;46439;51.164;13.572;2023-04-25T01:28:49;99034.56;;;11.14;100.00
60611;BME280;46439;51.164;13.572;2023-04-25T01:31:18;99036.42;;;11.08;100.00
60611;BME280;46439;51.164;13.572;2023-04-25T01:33:47;99040.61;;;11.04;100.00
60611;BME280;46439;51.164;13.572;2023-04-25T01:36:16;99040.69;;;11.02;100.00
60611;BME280;46439;51.164;13.572;2023-04-25T01:38:46;99040.79;;;10.94;100.00
60611;BME280;46439;51.164;13.572;2023-04-25T01:41:16;99040.31;;;10.87;100.00
60611;BME280;46439;51.164;13.572;2023-04-25T01:43:46;99037.17;;;10.78;100.00
60611;BME280;46439;51.164;13.572;2023-04-25T01:46:14;99036.18;;;10.69;100.00
60611;BME280;46439;51.164;13.572;2023-04-25T01:51:11;99035.36;;;10.69;100.00
60611;BME280;46439;51.164;13.572;2023-04-25T01:53:40;99040.34;;;10.68;100.00
60611;BME280;46439;51.164;13.572;2023-04-25T01:56:09;99039.75;;;10.64;100.00
60611;BME280;46439;51.164;13.572;2023-04-25T01:58:38;99040.73;;;10.66;100.00
60611;BME280;46439;51.164;13.572;2023-04-25T02:01:06;99043.36;;;10.67;100.00
60611;BME280;46439;51.164;13.572;2023-04-25T02:03:35;99044.98;;;10.67;100.00
60611;BME280;46439;51.164;13.572;2023-04-25T02:06:05;99045.59;;;10.63;100.00
60611;BME280;46439;51.164;13.572;2023-04-25T02:08:33;99048.16;;;10.60;100.00
60611;BME280;46439;51.164;13.572;2023-04-25T02:11:02;99046.53;;;10.60;100.00
60611;BME280;46439;51.164;13.572;2023-04-25T02:13:33;99043.73;;;10.58;100.00
60611;BME280;46439;51.164;13.572;2023-04-25T02:16:02;99045.98;;;10.56;100.00
60611;BME280;46439;51.164;13.572;2023-04-25T02:18:30;99046.18;;;10.56;100.00
60611;BME280;46439;51.164;13.572;2023-04-25T02:20:59;99046.27;;;10.55;100.00
60611;BME280;46439;51.164;13.572;2023-04-25T02:23:29;99043.98;;;10.53;100.00
60611;BME280;46439;51.164;13.572;2023-04-25T02:25:58;99040.88;;;10.50;100.00
60611;BME280;46439;51.164;13.572;2023-04-25T02:28:27;99038.95;;;10.48;100.00
60611;BME280;46439;51.164;13.572;2023-04-25T02:30:55;99036.67;;;10.45;100.00
60611;BME280;46439;51.164;13.572;2023-04-25T02:33:24;99037.98;;;10.42;100.00
60611;BME280;46439;51.164;13.572;2023-04-25T02:35:52;99039.62;;;10.37;100.00
60611;BME280;46439;51.164;13.572;2023-04-25T02:38:20;99040.73;;;10.34;100.00
60611;BME280;46439;51.164;13.572;2023-04-25T02:40:49;99042.20;;;10.31;100.00
60611;BME280;46439;51.164;13.572;2023-04-25T02:43:17;99037.75;;;10.26;100.00
60611;BME280;46439;51.164;13.572;2023-04-25T02:45:46;99038.73;;;10.19;100.00
60611;BME280;46439;51.164;13.572;2023-04-25T02:48:14;99040.19;;;10.12;100.00
60611;BME280;46439;51.164;13.572;2023-04-25T02:50:43;99041.80;;;10.05;100.00
60611;BME280;46439;51.164;13.572;2023-04-25T02:53:11;99043.27;;;10.00;100.00
60611;BME280;46439;51.164;13.572;2023-04-25T02:55:40;99040.48;;;9.97;100.00
60611;BME280;46439;51.164;13.572;2023-04-25T02:58:08;99032.39;;;9.93;100.00
60611;BME280;46439;51.164;13.572;2023-04-25T03:00:37;99034.07;;;9.89;100.00
60611;BME280;46439;51.164;13.572;2023-04-25T03:03:05;99032.60;;;9.86;100.00
60611;BME280;46439;51.164;13.572;2023-04-25T03:05:34;99030.48;;;9.79;100.00
60611;BME280;46439;51.164;13.572;2023-04-25T03:08:02;99029.12;;;9.74;100.00
60611;BME280;46439;51.164;13.572;2023-04-25T03:10:31;99031.34;;;9.73;100.00
60611;BME280;46439;51.164;13.572;2023-04-25T03:13:00;99031.38;;;9.72;100.00
60611;BME280;46439;51.164;13.572;2023-04-25T03:15:28;99034.05;;;9.71;100.00
60611;BME280;46439;51.164;13.572;2023-04-25T03:17:57;99035.43;;;9.70;100.00
60611;BME280;46439;51.164;13.572;2023-04-25T03:20:25;99030.55;;;9.66;100.00
60611;BME280;46439;51.164;13.572;2023-04-25T03:22:54;99031.60;;;9.63;100.00
60611;BME280;46439;51.164;13.572;2023-04-25T03:25:22;99033.95;;;9.59;100.00
60611;BME280;46439;51.164;13.572;2023-04-25T03:27:51;99036.88;;;9.57;100.00
60611;BME280;46439;51.164;13.572;2023-04-25T03:30:19;99038.18;;;9.57;100.00
60611;BME280;46439;51.164;13.572;2023-04-25T03:32:48;99037.56;;;9.57;100.00
60611;BME280;46439;51.164;13.572;2023-04-25T03:35:16;99040.86;;;9.54;100.00
60611;BME280;46439;51.164;13.572;2023-04-25T03:37:45;99039.84;;;9.50;100.00
60611;BME280;46439;51.164;13.572;2023-04-25T03:40:13;99041.55;;;9.50;100.00
60611;BME280;46439;51.164;13.572;2023-04-25T03:42:42;99037.45;;;9.54;100.00
60611;BME280;46439;51.164;13.572;2023-04-25T03:45:11;99037.37;;;9.58;100.00
60611;BME280;46439;51.164;13.572;2023-04-25T03:47:39;99036.38;;;9.60;100.00
60611;BME280;46439;51.164;13.572;2023-04-25T03:50:10;99044.26;;;9.60;100.00
60611;BME280;46439;51.164;13.572;2023-04-25T03:52:38;99043.66;;;9.58;100.00
60611;BME280;46439;51.164;13.572;2023-04-25T03:55:08;99040.13;;;9.56;100.00
60611;BME280;46439;51.164;13.572;2023-04-25T03:57:37;99039.45;;;9.54;100.00
60611;BME280;46439;51.164;13.572;2023-04-25T04:00:07;99035.73;;;9.51;100.00
60611;BME280;46439;51.164;13.572;2023-04-25T04:02:36;99036.28;;;9.48;100.00
60611;BME280;46439;51.164;13.572;2023-04-25T04:05:06;99035.91;;;9.44;100.00
60611;BME280;46439;51.164;13.572;2023-04-25T04:07:35;99038.14;;;9.42;100.00
60611;BME280;46439;51.164;13.572;2023-04-25T04:10:09;99040.06;;;9.38;100.00
60611;BME280;46439;51.164;13.572;2023-04-25T04:12:38;99041.98;;;9.35;100.00
60611;BME280;46439;51.164;13.572;2023-04-25T04:15:08;99042.12;;;9.33;100.00
60611;BME280;46439;51.164;13.572;2023-04-25T04:17:37;99041.71;;;9.29;100.00
60611;BME280;46439;51.164;13.572;2023-04-25T04:20:08;99043.15;;;9.23;100.00
60611;BME280;46439;51.164;13.572;2023-04-25T04:22:36;99044.09;;;9.21;100.00
60611;BME280;46439;51.164;13.572;2023-04-25T04:25:07;99048.16;;;9.19;100.00
60611;BME280;46439;51.164;13.572;2023-04-25T04:27:36;99048.30;;;9.15;100.00
60611;BME280;46439;51.164;13.572;2023-04-25T04:30:06;99049.54;;;9.10;100.00
60611;BME280;46439;51.164;13.572;2023-04-25T04:32:35;99051.60;;;9.06;100.00
60611;BME280;46439;51.164;13.572;2023-04-25T04:35:07;99051.79;;;9.09;100.00
60611;BME280;46439;51.164;13.572;2023-04-25T04:37:37;99050.31;;;9.10;100.00
60611;BME280;46439;51.164;13.572;2023-04-25T04:40:08;99055.23;;;9.10;100.00
60611;BME280;46439;51.164;13.572;2023-04-25T04:42:37;99056.77;;;9.09;100.00
60611;BME280;46439;51.164;13.572;2023-04-25T04:45:08;99058.67;;;9.07;100.00
60611;BME280;46439;51.164;13.572;2023-04-25T04:47:37;99065.27;;;9.10;100.00
60611;BME280;46439;51.164;13.572;2023-04-25T04:50:07;99064.61;;;9.11;100.00
60611;BME280;46439;51.164;13.572;2023-04-25T04:52:38;99063.52;;;9.10;100.00
60611;BME280;46439;51.164;13.572;2023-04-25T04:55:08;99063.55;;;9.09;100.00
60611;BME280;46439;51.164;13.572;2023-04-25T04:57:37;99066.63;;;9.09;100.00
60611;BME280;46439;51.164;13.572;2023-04-25T05:00:09;99065.53;;;9.08;100.00
60611;BME280;46439;51.164;13.572;2023-04-25T05:02:39;99069.16;;;9.06;100.00
60611;BME280;46439;51.164;13.572;2023-04-25T05:05:09;99069.28;;;9.02;100.00
60611;BME280;46439;51.164;13.572;2023-04-25T05:07:40;99071.44;;;9.02;100.00
60611;BME280;46439;51.164;13.572;2023-04-25T05:10:10;99073.54;;;9.05;100.00
60611;BME280;46439;51.164;13.572;2023-04-25T05:12:38;99078.64;;;9.09;100.00
60611;BME280;46439;51.164;13.572;2023-04-25T05:15:08;99081.06;;;9.12;100.00
60611;BME280;46439;51.164;13.572;2023-04-25T05:17:36;99083.98;;;9.13;100.00
60611;BME280;46439;51.164;13.572;2023-04-25T05:20:07;99081.81;;;9.16;100.00
60611;BME280;46439;51.164;13.572;2023-04-25T05:22:37;99085.63;;;9.12;100.00
60611;BME280;46439;51.164;13.572;2023-04-25T05:25:07;99083.02;;;9.09;100.00
60611;BME280;46439;51.164;13.572;2023-04-25T05:27:36;99079.02;;;9.03;100.00
60611;BME280;46439;51.164;13.572;2023-04-25T05:30:07;99078.75;;;9.01;100.00
60611;BME280;46439;51.164;13.572;2023-04-25T05:32:37;99080.60;;;8.99;100.00
60611;BME280;46439;51.164;13.572;2023-04-25T05:35:06;99076.76;;;8.97;100.00
60611;BME280;46439;51.164;13.572;2023-04-25T05:37:35;99080.46;;;8.94;100.00
60611;BME280;46439;51.164;13.572;2023-04-25T05:40:05;99082.13;;;8.92;100.00
60611;BME280;46439;51.164;13.572;2023-04-25T05:42:34;99087.19;;;8.89;100.00
60611;BME280;46439;51.164;13.572;2023-04-25T05:45:04;99084.58;;;8.84;100.00
60611;BME280;46439;51.164;13.572;2023-04-25T05:47:33;99083.48;;;8.83;100.00
60611;BME280;46439;51.164;13.572;2023-04-25T05:50:01;99086.02;;;8.81;100.00
60611;BME280;46439;51.164;13.572;2023-04-25T05:52:30;99084.61;;;8.81;100.00
60611;BME280;46439;51.164;13.572;2023-04-25T05:54:58;99087.88;;;8.84;100.00
60611;BME280;46439;51.164;13.572;2023-04-25T05:57:28;99088.73;;;8.87;100.00
60611;BME280;46439;51.164;13.572;2023-04-25T05:59:56;99087.47;;;8.91;100.00
60611;BME280;46439;51.164;13.572;2023-04-25T06:02:25;99091.75;;;8.96;100.00
60611;BME280;46439;51.164;13.572;2023-04-25T06:04:54;99094.55;;;9.02;100.00
60611;BME280;46439;51.164;13.572;2023-04-25T06:07:23;99097.71;;;9.08;100.00
60611;BME280;46439;51.164;13.572;2023-04-25T06:09:51;99100.27;;;9.12;100.00
60611;BME280;46439;51.164;13.572;2023-04-25T06:12:20;99096.34;;;9.18;100.00
60611;BME280;46439;51.164;13.572;2023-04-25T06:14:48;99092.52;;;9.25;100.00
60611;BME280;46439;51.164;13.572;2023-04-25T06:17:17;99095.80;;;9.30;100.00
60611;BME280;46439;51.164;13.572;2023-04-25T06:19:45;99097.27;;;9.36;100.00
60611;BME280;46439;51.164;13.572;2023-04-25T06:22:14;99095.80;;;9.43;100.00
60611;BME280;46439;51.164;13.572;2023-04-25T06:24:42;99095.18;;;9.51;100.00
60611;BME280;46439;51.164;13.572;2023-04-25T06:27:10;99088.41;;;9.56;100.00
60611;BME280;46439;51.164;13.572;2023-04-25T06:29:39;99084.73;;;9.61;100.00
60611;BME280;46439;51.164;13.572;2023-04-25T06:32:07;99083.67;;;9.67;100.00
60611;BME280;46439;51.164;13.572;2023-04-25T06:34:36;99082.91;;;9.71;100.00
60611;BME280;46439;51.164;13.572;2023-04-25T06:37:05;99079.98;;;9.77;100.00
60611;BME280;46439;51.164;13.572;2023-04-25T06:39:33;99086.86;;;9.83;100.00
60611;BME280;46439;51.164;13.572;2023-04-25T06:42:02;99083.52;;;9.93;100.00
60611;BME280;46439;51.164;13.572;2023-04-25T06:44:30;99085.73;;;10.04;100.00
60611;BME280;46439;51.164;13.572;2023-04-25T06:46:59;99087.55;;;10.10;100.00
60611;BME280;46439;51.164;13.572;2023-04-25T06:49:28;99087.97;;;10.15;100.00
60611;BME280;46439;51.164;13.572;2023-04-25T06:51:56;99086.77;;;10.18;100.00
60611;BME280;46439;51.164;13.572;2023-04-25T06:54:24;99083.96;;;10.18;100.00
60611;BME280;46439;51.164;13.572;2023-04-25T06:56:55;99085.71;;;10.18;100.00
60611;BME280;46439;51.164;13.572;2023-04-25T06:59:24;99083.58;;;10.24;100.00
60611;BME280;46439;51.164;13.572;2023-04-25T07:01:52;99087.02;;;10.29;100.00
60611;BME280;46439;51.164;13.572;2023-04-25T07:04:21;99084.49;;;10.32;100.00
60611;BME280;46439;51.164;13.572;2023-04-25T07:06:50;99085.41;;;10.39;100.00
60611;BME280;46439;51.164;13.572;2023-04-25T07:09:18;99089.50;;;10.44;100.00
60611;BME280;46439;51.164;13.572;2023-04-25T07:11:47;99089.21;;;10.51;100.00
60611;BME280;46439;51.164;13.572;2023-04-25T07:14:16;99088.75;;;10.59;100.00
60611;BME280;46439;51.164;13.572;2023-04-25T07:16:45;99094.00;;;10.63;100.00
60611;BME280;46439;51.164;13.572;2023-04-25T07:19:14;99090.42;;;10.69;100.00
60611;BME280;46439;51.164;13.572;2023-04-25T07:21:42;99089.38;;;10.77;100.00
60611;BME280;46439;51.164;13.572;2023-04-25T07:24:11;99085.21;;;10.85;100.00
60611;BME280;46439;51.164;13.572;2023-04-25T07:26:40;99081.94;;;10.89;100.00
60611;BME280;46439;51.164;13.572;2023-04-25T07:29:08;99086.52;;;10.93;100.00
60611;BME280;46439;51.164;13.572;2023-04-25T07:31:37;99084.84;;;10.95;100.00
60611;BME280;46439;51.164;13.572;2023-04-25T07:34:06;99084.15;;;11.03;100.00
60611;BME280;46439;51.164;13.572;2023-04-25T07:36:35;99091.52;;;11.08;100.00
60611;BME280;46439;51.164;13.572;2023-04-25T07:39:04;99092.70;;;11.13;100.00
60611;BME280;46439;51.164;13.572;2023-04-25T07:41:32;99087.98;;;11.17;100.00
60611;BME280;46439;51.164;13.572;2023-04-25T07:44:01;99091.30;;;11.23;100.00
60611;BME280;46439;51.164;13.572;2023-04-25T07:46:30;99093.29;;;11.34;100.00
60611;BME280;46439;51.164;13.572;2023-04-25T07:48:58;99092.27;;;11.41;100.00
60611;BME280;46439;51.164;13.572;2023-04-25T07:51:27;99095.65;;;11.35;100.00
60611;BME280;46439;51.164;13.572;2023-04-25T07:53:56;99094.89;;;11.29;100.00
60611;BME280;46439;51.164;13.572;2023-04-25T07:56:24;99096.48;;;11.24;100.00
60611;BME280;46439;51.164;13.572;2023-04-25T07:58:53;99095.02;;;11.27;100.00
60611;BME280;46439;51.164;13.572;2023-04-25T08:01:21;99095.38;;;11.36;100.00
60611;BME280;46439;51.164;13.572;2023-04-25T08:03:50;99100.02;;;11.45;100.00
60611;BME280;46439;51.164;13.572;2023-04-25T08:06:24;99101.16;;;11.44;100.00
60611;BME280;46439;51.164;13.572;2023-04-25T08:08:53;99103.33;;;11.49;100.00
60611;BME280;46439;51.164;13.572;2023-04-25T08:11:22;99106.84;;;11.57;100.00
60611;BME280;46439;51.164;13.572;2023-04-25T08:13:51;99109.55;;;11.63;100.00
60611;BME280;46439;51.164;13.572;2023-04-25T08:16:20;99115.21;;;11.68;100.00
60611;BME280;46439;51.164;13.572;2023-04-25T08:18:49;99118.26;;;11.71;100.00
60611;BME280;46439;51.164;13.572;2023-04-25T08:21:18;99118.66;;;11.68;100.00
60611;BME280;46439;51.164;13.572;2023-04-25T08:23:47;99117.61;;;11.60;100.00
60611;BME280;46439;51.164;13.572;2023-04-25T08:26:15;99119.68;;;11.58;100.00
60611;BME280;46439;51.164;13.572;2023-04-25T08:28:44;99120.35;;;11.59;100.00
60611;BME280;46439;51.164;13.572;2023-04-25T08:31:13;99118.04;;;11.60;100.00
60611;BME280;46439;51.164;13.572;2023-04-25T08:33:42;99115.21;;;11.61;100.00
60611;BME280;46439;51.164;13.572;2023-04-25T08:36:11;99122.06;;;11.63;100.00
60611;BME280;46439;51.164;13.572;2023-04-25T08:38:39;99126.60;;;11.68;100.00
60611;BME280;46439;51.164;13.572;2023-04-25T08:41:08;99125.70;;;11.75;100.00
60611;BME280;46439;51.164;13.572;2023-04-25T08:43:43;99127.37;;;11.83;100.00
60611;BME280;46439;51.164;13.572;2023-04-25T08:46:18;99125.80;;;11.91;100.00
60611;BME280;46439;51.164;13.572;2023-04-25T08:48:48;99126.29;;;11.98;100.00
60611;BME280;46439;51.164;13.572;2023-04-25T08:51:23;99120.15;;;12.11;100.00
60611;BME280;46439;51.164;13.572;2023-04-25T08:53:54;99123.30;;;12.30;100.00
60611;BME280;46439;51.164;13.572;2023-04-25T08:56:23;99126.67;;;12.37;100.00
60611;BME280;46439;51.164;13.572;2023-04-25T08:58:53;99129.33;;;12.39;100.00
60611;BME280;46439;51.164;13.572;2023-04-25T09:01:23;99136.27;;;12.41;100.00
60611;BME280;46439;51.164;13.572;2023-04-25T09:03:52;99139.05;;;12.34;100.00
60611;BME280;46439;51.164;13.572;2023-04-25T09:06:21;99148.23;;;12.27;100.00
60611;BME280;46439;51.164;13.572;2023-04-25T09:08:52;99153.70;;;12.18;100.00
60611;BME280;46439;51.164;13.572;2023-04-25T09:11:21;99157.13;;;12.09;100.00
60611;BME280;46439;51.164;13.572;2023-04-25T09:13:49;99156.06;;;12.06;100.00
60611;BME280;46439;51.164;13.572;2023-04-25T09:17:02;99160.70;;;12.06;100.00
60611;BME280;46439;51.164;13.572;2023-04-25T09:19:32;99160.27;;;12.03;100.00
60611;BME280;46439;51.164;13.572;2023-04-25T09:22:04;99166.52;;;12.04;100.00
60611;BME280;46439;51.164;13.572;2023-04-25T09:24:38;99167.60;;;12.08;100.00
60611;BME280;46439;51.164;13.572;2023-04-25T09:27:09;99170.42;;;12.15;100.00
60611;BME280;46439;51.164;13.572;2023-04-25T09:29:39;99172.19;;;12.21;100.00
60611;BME280;46439;51.164;13.572;2023-04-25T09:32:17;99178.63;;;12.24;100.00
60611;BME280;46439;51.164;13.572;2023-04-25T09:34:49;99186.95;;;12.21;100.00
60611;BME280;46439;51.164;13.572;2023-04-25T09:37:22;99191.55;;;12.18;100.00
60611;BME280;46439;51.164;13.572;2023-04-25T09:39:53;99194.12;;;12.16;100.00
60611;BME280;46439;51.164;13.572;2023-04-25T09:42:24;99195.23;;;12.15;100.00
60611;BME280;46439;51.164;13.572;2023-04-25T09:44:55;99194.65;;;12.15;100.00
60611;BME280;46439;51.164;13.572;2023-04-25T09:47:25;99203.40;;;12.22;100.00
60611;BME280;46439;51.164;13.572;2023-04-25T09:49:55;99202.98;;;12.28;100.00
60611;BME280;46439;51.164;13.572;2023-04-25T09:52:25;99199.52;;;12.27;100.00
60611;BME280;46439;51.164;13.572;2023-04-25T09:54:54;99197.08;;;12.27;100.00
60611;BME280;46439;51.164;13.572;2023-04-25T09:57:23;99196.65;;;12.33;100.00
60611;BME280;46439;51.164;13.572;2023-04-25T09:59:54;99199.08;;;12.39;100.00
60611;BME280;46439;51.164;13.572;2023-04-25T10:02:24;99202.89;;;12.44;100.00
60611;BME280;46439;51.164;13.572;2023-04-25T10:04:54;99206.89;;;12.44;100.00
60611;BME280;46439;51.164;13.572;2023-04-25T10:07:24;99204.94;;;12.36;100.00
60611;BME280;46439;51.164;13.572;2023-04-25T10:09:58;99207.10;;;12.29;100.00
60611;BME280;46439;51.164;13.572;2023-04-25T10:12:28;99206.31;;;12.21;100.00
60611;BME280;46439;51.164;13.572;2023-04-25T10:14:59;99208.31;;;12.15;100.00
60611;BME280;46439;51.164;13.572;2023-04-25T10:17:28;99209.52;;;12.15;100.00
60611;BME280;46439;51.164;13.572;2023-04-25T10:19:58;99211.52;;;12.13;100.00
60611;BME280;46439;51.164;13.572;2023-04-25T10:22:32;99212.27;;;12.14;100.00
60611;BME280;46439;51.164;13.572;2023-04-25T10:25:02;99212.69;;;12.21;100.00
60611;BME280;46439;51.164;13.572;2023-04-25T10:27:35;99213.92;;;12.23;100.00
60611;BME280;46439;51.164;13.572;2023-04-25T10:30:06;99221.23;;;12.20;100.00
60611;BME280;46439;51.164;13.572;2023-04-25T10:32:38;99219.30;;;12.11;100.00
60611;BME280;46439;51.164;13.572;2023-04-25T10:35:16;99225.57;;;12.00;100.00
60611;BME280;46439;51.164;13.572;2023-04-25T10:38:02;99228.39;;;11.86;100.00
60611;BME280;46439;51.164;13.572;2023-04-25T10:40:32;99233.92;;;11.73;100.00
60611;BME280;46439;51.164;13.572;2023-04-25T10:46:01;99244.48;;;11.69;100.00
60611;BME280;46439;51.164;13.572;2023-04-25T10:48:31;99250.23;;;11.62;100.00
60611;BME280;46439;51.164;13.572;2023-04-25T10:51:10;99253.02;;;11.48;100.00
60611;BME280;46439;51.164;13.572;2023-04-25T10:53:39;99254.60;;;11.38;100.00
60611;BME280;46439;51.164;13.572;2023-04-25T10:56:12;99266.90;;;11.28;100.00
60611;BME280;46439;51.164;13.572;2023-04-25T10:58:47;99263.78;;;11.20;100.00
60611;BME280;46439;51.164;13.572;2023-04-25T11:01:19;99267.73;;;11.17;100.00
60611;BME280;46439;51.164;13.572;2023-04-25T11:03:48;99265.92;;;11.18;100.00
60611;BME280;46439;51.164;13.572;2023-04-25T11:06:27;99263.27;;;11.21;100.00
60611;BME280;46439;51.164;13.572;2023-04-25T11:08:57;99267.59;;;11.18;100.00
60611;BME280;46439;51.164;13.572;2023-04-25T11:11:30;99272.55;;;11.12;100.00
60611;BME280;46439;51.164;13.572;2023-04-25T11:13:59;99275.09;;;11.12;100.00
60611;BME280;46439;51.164;13.572;2023-04-25T11:16:28;99278.19;;;11.17;100.00
60611;BME280;46439;51.164;13.572;2023-04-25T11:18:58;99281.91;;;11.23;100.00
60611;BME280;46439;51.164;13.572;2023-04-25T11:21:27;99284.52;;;11.28;100.00
60611;BME280;46439;51.164;13.572;2023-04-25T11:23:57;99281.02;;;11.34;100.00
60611;BME280;46439;51.164;13.572;2023-04-25T11:26:27;99279.84;;;11.41;100.00
60611;BME280;46439;51.164;13.572;2023-04-25T11:29:00;99277.70;;;11.50;100.00
60611;BME280;46439;51.164;13.572;2023-04-25T11:31:29;99273.80;;;11.63;100.00
60611;BME280;46439;51.164;13.572;2023-04-25T11:33:59;99272.61;;;11.83;100.00
60611;BME280;46439;51.164;13.572;2023-04-25T11:36:28;99272.48;;;12.01;100.00
60611;BME280;46439;51.164;13.572;2023-04-25T11:38:57;99268.70;;;12.13;100.00
60611;BME280;46439;51.164;13.572;2023-04-25T11:41:27;99266.02;;;12.27;100.00
60611;BME280;46439;51.164;13.572;2023-04-25T11:43:55;99262.27;;;12.38;100.00
60611;BME280;46439;51.164;13.572;2023-04-25T11:46:24;99268.86;;;12.42;100.00
60611;BME280;46439;51.164;13.572;2023-04-25T11:48:57;99265.48;;;12.43;100.00
60611;BME280;46439;51.164;13.572;2023-04-25T11:51:25;99271.32;;;12.40;100.00
60611;BME280;46439;51.164;13.572;2023-04-25T11:53:54;99277.89;;;12.32;100.00
60611;BME280;46439;51.164;13.572;2023-04-25T11:56:23;99279.66;;;12.21;100.00
60611;BME280;46439;51.164;13.572;2023-04-25T11:59:00;99285.76;;;12.10;100.00
60611;BME280;46439;51.164;13.572;2023-04-25T12:01:31;99285.34;;;12.08;100.00
60611;BME280;46439;51.164;13.572;2023-04-25T12:04:11;99287.37;;;12.03;100.00
60611;BME280;46439;51.164;13.572;2023-04-25T12:06:41;99288.69;;;11.97;100.00
60611;BME280;46439;51.164;13.572;2023-04-25T12:09:11;99283.65;;;11.91;100.00
60611;BME280;46439;51.164;13.572;2023-04-25T12:11:45;99286.48;;;11.96;100.00
60611;BME280;46439;51.164;13.572;2023-04-25T12:14:22;99287.74;;;12.00;100.00
60611;BME280;46439;51.164;13.572;2023-04-25T12:16:56;99286.79;;;12.03;100.00
60611;BME280;46439;51.164;13.572;2023-04-25T12:19:33;99288.42;;;12.12;100.00
60611;BME280;46439;51.164;13.572;2023-04-25T12:22:03;99292.41;;;12.22;100.00
60611;BME280;46439;51.164;13.572;2023-04-25T12:24:35;99287.88;;;12.27;100.00
60611;BME280;46439;51.164;13.572;2023-04-25T12:27:05;99286.59;;;12.34;100.00
60611;BME280;46439;51.164;13.572;2023-04-25T12:29:36;99284.39;;;12.38;100.00
60611;BME280;46439;51.164;13.572;2023-04-25T12:32:05;99288.60;;;12.46;100.00
60611;BME280;46439;51.164;13.572;2023-04-25T12:34:34;99288.98;;;12.48;100.00
60611;BME280;46439;51.164;13.572;2023-04-25T12:37:04;99294.93;;;12.50;100.00
60611;BME280;46439;51.164;13.572;2023-04-25T12:39:33;99296.30;;;12.48;100.00
60611;BME280;46439;51.164;13.572;2023-04-25T12:42:02;99300.80;;;12.40;100.00
60611;BME280;46439;51.164;13.572;2023-04-25T12:44:31;99302.14;;;12.37;100.00
60611;BME280;46439;51.164;13.572;2023-04-25T12:47:00;99304.70;;;12.34;100.00
60611;BME280;46439;51.164;13.572;2023-04-25T12:49:28;99303.33;;;12.29;100.00
60611;BME280;46439;51.164;13.572;2023-04-25T12:51:57;99305.57;;;12.28;100.00
60611;BME280;46439;51.164;13.572;2023-04-25T12:54:26;99305.95;;;12.23;100.00
60611;BME280;46439;51.164;13.572;2023-04-25T12:56:55;99310.75;;;12.17;100.00
60611;BME280;46439;51.164;13.572;2023-04-25T12:59:24;99314.04;;;12.09;100.00
60611;BME280;46439;51.164;13.572;2023-04-25T13:01:53;99317.01;;;12.03;100.00